sensor_id;sensor_type;location;lat;lon;timestamp;temperature;humidity
12847;DHT22;6492;48.128;8.320;2023-05-10T00:01:11;9.30;75.80
12847;DHT22;6492;48.128;8.320;2023-05-10T00:05:13;9.30;76.80
12847;DHT22;6492;48.128;8.320;2023-05-10T00:09:15;9.30;77.50
12847;DHT22;6492;48.128;8.320;2023-05-10T00:13:18;9.30;78.00
12847;DHT22;6492;48.128;8.320;2023-05-10T00:17:20;9.30;78.20
12847;DHT22;6492;48.128;8.320;2023-05-10T00:21:22;9.50;78.30
12847;DHT22;6492;48.128;8.320;2023-05-10T00:25:24;9.20;78.60
12847;DHT22;6492;48.128;8.320;2023-05-10T00:29:27;9.20;79.30
12847;DHT22;6492;48.128;8.320;2023-05-10T00:33:29;9.20;79.50
12847;DHT22;6492;48.128;8.320;2023-05-10T00:37:31;9.20;79.90
12847;DHT22;6492;48.128;8.320;2023-05-10T00:41:33;9.20;80.10
12847;DHT22;6492;48.128;8.320;2023-05-10T00:45:37;9.20;80.50
12847;DHT22;6492;48.128;8.320;2023-05-10T00:49:39;9.20;80.60
12847;DHT22;6492;48.128;8.320;2023-05-10T00:53:43;9.20;80.60
12847;DHT22;6492;48.128;8.320;2023-05-10T00:57:53;9.10;80.60
12847;DHT22;6492;48.128;8.320;2023-05-10T01:01:57;9.00;80.10
12847;DHT22;6492;48.128;8.320;2023-05-10T01:05:59;9.00;79.70
12847;DHT22;6492;48.128;8.320;2023-05-10T01:10:01;8.90;79.80
12847;DHT22;6492;48.128;8.320;2023-05-10T01:14:03;8.90;79.70
12847;DHT22;6492;48.128;8.320;2023-05-10T01:18:08;8.90;80.10
12847;DHT22;6492;48.128;8.320;2023-05-10T01:22:28;8.90;80.60
12847;DHT22;6492;48.128;8.320;2023-05-10T01:27:02;8.90;80.70
12847;DHT22;6492;48.128;8.320;2023-05-10T01:31:26;8.90;80.90
12847;DHT22;6492;48.128;8.320;2023-05-10T01:35:37;8.90;80.80
12847;DHT22;6492;48.128;8.320;2023-05-10T01:39:45;8.90;80.90
12847;DHT22;6492;48.128;8.320;2023-05-10T01:43:53;8.80;80.80
12847;DHT22;6492;48.128;8.320;2023-05-10T01:48:03;8.80;81.00
12847;DHT22;6492;48.128;8.320;2023-05-10T01:52:10;8.80;81.20
12847;DHT22;6492;48.128;8.320;2023-05-10T01:56:14;8.80;81.50
12847;DHT22;6492;48.128;8.320;2023-05-10T02:00:18;8.80;81.60
12847;DHT22;6492;48.128;8.320;2023-05-10T02:04:22;8.80;81.80
12847;DHT22;6492;48.128;8.320;2023-05-10T02:08:26;8.80;82.00
12847;DHT22;6492;48.128;8.320;2023-05-10T02:12:29;8.80;82.20
12847;DHT22;6492;48.128;8.320;2023-05-10T02:16:31;8.80;82.30
12847;DHT22;6492;48.128;8.320;2023-05-10T02:20:35;8.80;82.40
12847;DHT22;6492;48.128;8.320;2023-05-10T02:24:39;8.80;82.50
12847;DHT22;6492;48.128;8.320;2023-05-10T02:28:42;8.80;82.70
12847;DHT22;6492;48.128;8.320;2023-05-10T02:32:45;8.80;82.70
12847;DHT22;6492;48.128;8.320;2023-05-10T02:36:48;8.70;82.70
12847;DHT22;6492;48.128;8.320;2023-05-10T02:40:52;8.70;82.80
12847;DHT22;6492;48.128;8.320;2023-05-10T02:44:59;8.70;82.60
12847;DHT22;6492;48.128;8.320;2023-05-10T02:49:02;8.60;82.60
12847;DHT22;6492;48.128;8.320;2023-05-10T02:53:09;8.60;83.40
12847;DHT22;6492;48.128;8.320;2023-05-10T02:57:16;8.60;82.70
12847;DHT22;6492;48.128;8.320;2023-05-10T03:01:19;8.50;82.80
12847;DHT22;6492;48.128;8.320;2023-05-10T03:05:21;8.50;82.90
12847;DHT22;6492;48.128;8.320;2023-05-10T03:09:23;8.50;83.00
12847;DHT22;6492;48.128;8.320;2023-05-10T03:13:31;8.50;83.00
12847;DHT22;6492;48.128;8.320;2023-05-10T03:17:40;8.50;83.00
12847;DHT22;6492;48.128;8.320;2023-05-10T03:21:47;8.50;83.10
12847;DHT22;6492;48.128;8.320;2023-05-10T03:25:56;8.50;83.30
12847;DHT22;6492;48.128;8.320;2023-05-10T03:30:02;8.50;83.40
12847;DHT22;6492;48.128;8.320;2023-05-10T03:34:04;8.50;83.50
12847;DHT22;6492;48.128;8.320;2023-05-10T03:38:06;8.50;83.50
12847;DHT22;6492;48.128;8.320;2023-05-10T03:42:08;8.50;83.50
12847;DHT22;6492;48.128;8.320;2023-05-10T03:46:13;8.50;83.50
12847;DHT22;6492;48.128;8.320;2023-05-10T03:50:15;8.50;83.50
12847;DHT22;6492;48.128;8.320;2023-05-10T03:54:17;8.40;83.50
12847;DHT22;6492;48.128;8.320;2023-05-10T03:58:19;8.40;83.50
12847;DHT22;6492;48.128;8.320;2023-05-10T04:02:22;8.40;83.50
12847;DHT22;6492;48.128;8.320;2023-05-10T04:06:24;8.40;83.50
12847;DHT22;6492;48.128;8.320;2023-05-10T04:10:26;8.30;83.50
12847;DHT22;6492;48.128;8.320;2023-05-10T04:14:27;8.30;83.50
12847;DHT22;6492;48.128;8.320;2023-05-10T04:18:31;8.30;83.50
12847;DHT22;6492;48.128;8.320;2023-05-10T04:22:33;8.30;83.50
12847;DHT22;6492;48.128;8.320;2023-05-10T04:26:36;8.30;83.60
12847;DHT22;6492;48.128;8.320;2023-05-10T04:30:37;8.40;83.70
12847;DHT22;6492;48.128;8.320;2023-05-10T04:34:40;8.40;83.60
12847;DHT22;6492;48.128;8.320;2023-05-10T04:38:42;8.40;83.50
12847;DHT22;6492;48.128;8.320;2023-05-10T04:42:59;8.40;83.40
12847;DHT22;6492;48.128;8.320;2023-05-10T04:47:01;8.40;83.30
12847;DHT22;6492;48.128;8.320;2023-05-10T04:51:05;9.20;83.80
12847;DHT22;6492;48.128;8.320;2023-05-10T04:55:10;8.50;83.40
12847;DHT22;6492;48.128;8.320;2023-05-10T04:59:12;8.50;83.30
12847;DHT22;6492;48.128;8.320;2023-05-10T05:03:47;8.50;83.40
12847;DHT22;6492;48.128;8.320;2023-05-10T05:07:50;8.50;83.40
12847;DHT22;6492;48.128;8.320;2023-05-10T05:11:52;8.70;83.50
12847;DHT22;6492;48.128;8.320;2023-05-10T05:16:02;8.60;83.30
12847;DHT22;6492;48.128;8.320;2023-05-10T05:20:11;8.60;83.10
12847;DHT22;6492;48.128;8.320;2023-05-10T05:24:22;8.70;83.10
12847;DHT22;6492;48.128;8.320;2023-05-10T05:28:27;8.70;82.70
12847;DHT22;6492;48.128;8.320;2023-05-10T05:32:33;8.80;82.40
12847;DHT22;6492;48.128;8.320;2023-05-10T05:36:36;8.80;82.10
12847;DHT22;6492;48.128;8.320;2023-05-10T05:40:40;8.90;82.10
12847;DHT22;6492;48.128;8.320;2023-05-10T05:44:42;9.00;82.00
12847;DHT22;6492;48.128;8.320;2023-05-10T05:48:43;9.10;81.80
12847;DHT22;6492;48.128;8.320;2023-05-10T05:52:45;9.20;81.30
12847;DHT22;6492;48.128;8.320;2023-05-10T05:56:48;9.20;80.60
12847;DHT22;6492;48.128;8.320;2023-05-10T06:00:50;9.30;80.40
12847;DHT22;6492;48.128;8.320;2023-05-10T06:04:52;9.40;80.60
12847;DHT22;6492;48.128;8.320;2023-05-10T06:08:54;9.50;79.90
12847;DHT22;6492;48.128;8.320;2023-05-10T06:12:57;9.60;78.30
12847;DHT22;6492;48.128;8.320;2023-05-10T06:16:59;9.80;76.90
12847;DHT22;6492;48.128;8.320;2023-05-10T06:21:01;9.90;74.10
12847;DHT22;6492;48.128;8.320;2023-05-10T06:25:03;10.00;71.00
12847;DHT22;6492;48.128;8.320;2023-05-10T06:29:06;10.10;70.00
12847;DHT22;6492;48.128;8.320;2023-05-10T06:33:08;10.10;65.70
12847;DHT22;6492;48.128;8.320;2023-05-10T06:37:10;10.00;66.10
12847;DHT22;6492;48.128;8.320;2023-05-10T06:41:12;9.90;63.70
12847;DHT22;6492;48.128;8.320;2023-05-10T06:45:15;9.80;63.80
12847;DHT22;6492;48.128;8.320;2023-05-10T06:49:17;9.70;64.60
12847;DHT22;6492;48.128;8.320;2023-05-10T06:53:19;9.60;65.70
12847;DHT22;6492;48.128;8.320;2023-05-10T06:57:21;9.60;66.70
12847;DHT22;6492;48.128;8.320;2023-05-10T07:01:24;9.50;66.30
12847;DHT22;6492;48.128;8.320;2023-05-10T07:05:26;9.60;66.10
12847;DHT22;6492;48.128;8.320;2023-05-10T07:09:29;9.60;66.70
12847;DHT22;6492;48.128;8.320;2023-05-10T07:13:31;9.60;67.10
12847;DHT22;6492;48.128;8.320;2023-05-10T07:17:35;9.50;65.60
12847;DHT22;6492;48.128;8.320;2023-05-10T07:21:36;9.50;66.40
12847;DHT22;6492;48.128;8.320;2023-05-10T07:25:40;9.60;67.00
12847;DHT22;6492;48.128;8.320;2023-05-10T07:29:49;9.60;65.90
12847;DHT22;6492;48.128;8.320;2023-05-10T07:33:52;9.80;68.20
12847;DHT22;6492;48.128;8.320;2023-05-10T07:37:54;10.10;67.30
12847;DHT22;6492;48.128;8.320;2023-05-10T07:41:56;10.40;63.60
12847;DHT22;6492;48.128;8.320;2023-05-10T07:45:58;10.30;61.80
12847;DHT22;6492;48.128;8.320;2023-05-10T07:50:01;10.20;60.10
12847;DHT22;6492;48.128;8.320;2023-05-10T07:54:03;10.00;60.00
12847;DHT22;6492;48.128;8.320;2023-05-10T07:58:05;9.70;60.40
12847;DHT22;6492;48.128;8.320;2023-05-10T08:02:07;9.50;54.30
12847;DHT22;6492;48.128;8.320;2023-05-10T08:06:10;9.30;56.20
12847;DHT22;6492;48.128;8.320;2023-05-10T08:10:12;9.30;57.20
12847;DHT22;6492;48.128;8.320;2023-05-10T08:14:14;9.20;53.80
12847;DHT22;6492;48.128;8.320;2023-05-10T08:18:19;9.00;54.40
12847;DHT22;6492;48.128;8.320;2023-05-10T08:22:23;9.00;56.80
12847;DHT22;6492;48.128;8.320;2023-05-10T08:26:25;9.30;60.60
12847;DHT22;6492;48.128;8.320;2023-05-10T08:30:27;9.80;59.80
12847;DHT22;6492;48.128;8.320;2023-05-10T08:34:28;10.30;57.30
12847;DHT22;6492;48.128;8.320;2023-05-10T08:38:32;10.70;54.40
12847;DHT22;6492;48.128;8.320;2023-05-10T08:42:36;10.80;46.90
12847;DHT22;6492;48.128;8.320;2023-05-10T08:46:41;10.80;46.90
12847;DHT22;6492;48.128;8.320;2023-05-10T08:50:48;11.00;48.10
12847;DHT22;6492;48.128;8.320;2023-05-10T08:54:51;11.40;48.00
12847;DHT22;6492;48.128;8.320;2023-05-10T08:58:54;11.80;45.30
12847;DHT22;6492;48.128;8.320;2023-05-10T09:02:56;12.20;37.90
12847;DHT22;6492;48.128;8.320;2023-05-10T09:06:58;12.30;34.00
12847;DHT22;6492;48.128;8.320;2023-05-10T09:11:01;12.70;37.10
12847;DHT22;6492;48.128;8.320;2023-05-10T09:15:35;13.10;30.20
12847;DHT22;6492;48.128;8.320;2023-05-10T09:19:37;13.40;28.70
12847;DHT22;6492;48.128;8.320;2023-05-10T09:23:43;13.90;29.10
12847;DHT22;6492;48.128;8.320;2023-05-10T09:27:47;14.10;25.80
12847;DHT22;6492;48.128;8.320;2023-05-10T09:31:50;14.30;25.20
12847;DHT22;6492;48.128;8.320;2023-05-10T09:35:55;14.50;21.20
12847;DHT22;6492;48.128;8.320;2023-05-10T09:40:11;14.60;24.80
12847;DHT22;6492;48.128;8.320;2023-05-10T09:44:16;14.50;21.00
12847;DHT22;6492;48.128;8.320;2023-05-10T09:48:23;13.90;20.00
12847;DHT22;6492;48.128;8.320;2023-05-10T09:52:25;13.50;23.40
12847;DHT22;6492;48.128;8.320;2023-05-10T09:56:33;13.70;25.60
12847;DHT22;6492;48.128;8.320;2023-05-10T10:00:39;13.90;25.00
12847;DHT22;6492;48.128;8.320;2023-05-10T10:04:43;13.90;23.50
12847;DHT22;6492;48.128;8.320;2023-05-10T10:08:45;13.40;23.00
12847;DHT22;6492;48.128;8.320;2023-05-10T10:12:47;12.20;24.00
12847;DHT22;6492;48.128;8.320;2023-05-10T10:16:51;11.30;28.90
12847;DHT22;6492;48.128;8.320;2023-05-10T10:20:54;10.90;31.70
12847;DHT22;6492;48.128;8.320;2023-05-10T10:24:55;10.70;35.40
12847;DHT22;6492;48.128;8.320;2023-05-10T10:29:07;10.70;35.70
12847;DHT22;6492;48.128;8.320;2023-05-10T10:33:33;10.70;34.40
12847;DHT22;6492;48.128;8.320;2023-05-10T10:37:44;10.10;35.00
12847;DHT22;6492;48.128;8.320;2023-05-10T10:41:50;10.10;39.20
12847;DHT22;6492;48.128;8.320;2023-05-10T10:46:13;10.20;37.10
12847;DHT22;6492;48.128;8.320;2023-05-10T10:50:18;10.20;35.10
12847;DHT22;6492;48.128;8.320;2023-05-10T10:54:27;10.40;36.90
12847;DHT22;6492;48.128;8.320;2023-05-10T10:58:29;10.90;38.20
12847;DHT22;6492;48.128;8.320;2023-05-10T11:02:33;11.70;35.30
12847;DHT22;6492;48.128;8.320;2023-05-10T11:06:37;12.00;28.30
12847;DHT22;6492;48.128;8.320;2023-05-10T11:10:49;12.30;26.30
12847;DHT22;6492;48.128;8.320;2023-05-10T11:14:52;12.70;24.80
12847;DHT22;6492;48.128;8.320;2023-05-10T11:19:00;13.10;25.00
12847;DHT22;6492;48.128;8.320;2023-05-10T11:23:12;13.50;24.20
12847;DHT22;6492;48.128;8.320;2023-05-10T11:27:16;14.10;23.30
12847;DHT22;6492;48.128;8.320;2023-05-10T11:31:18;14.60;20.00
12847;DHT22;6492;48.128;8.320;2023-05-10T11:35:21;15.10;19.10
12847;DHT22;6492;48.128;8.320;2023-05-10T11:39:27;15.30;13.80
12847;DHT22;6492;48.128;8.320;2023-05-10T11:43:29;15.70;12.90
12847;DHT22;6492;48.128;8.320;2023-05-10T11:47:31;15.50;14.60
12847;DHT22;6492;48.128;8.320;2023-05-10T11:51:34;15.80;15.50
12847;DHT22;6492;48.128;8.320;2023-05-10T11:55:37;15.90;12.20
12847;DHT22;6492;48.128;8.320;2023-05-10T11:59:39;15.70;12.10
12847;DHT22;6492;48.128;8.320;2023-05-10T12:03:41;15.10;13.00
12847;DHT22;6492;48.128;8.320;2023-05-10T12:07:43;14.60;13.90
12847;DHT22;6492;48.128;8.320;2023-05-10T12:11:46;14.00;15.00
12847;DHT22;6492;48.128;8.320;2023-05-10T12:15:48;14.20;18.80
12847;DHT22;6492;48.128;8.320;2023-05-10T12:19:51;14.80;14.00
12847;DHT22;6492;48.128;8.320;2023-05-10T12:23:59;15.30;17.20
12847;DHT22;6492;48.128;8.320;2023-05-10T12:28:05;15.50;12.30
12847;DHT22;6492;48.128;8.320;2023-05-10T12:32:08;15.20;16.50
12847;DHT22;6492;48.128;8.320;2023-05-10T12:36:10;15.80;15.90
12847;DHT22;6492;48.128;8.320;2023-05-10T12:40:13;16.20;9.90
12847;DHT22;6492;48.128;8.320;2023-05-10T12:44:16;16.30;10.40
12847;DHT22;6492;48.128;8.320;2023-05-10T12:48:18;15.80;11.40
12847;DHT22;6492;48.128;8.320;2023-05-10T12:52:20;15.20;12.50
12847;DHT22;6492;48.128;8.320;2023-05-10T12:56:22;14.50;14.00
12847;DHT22;6492;48.128;8.320;2023-05-10T13:00:25;14.10;16.80
12847;DHT22;6492;48.128;8.320;2023-05-10T13:04:27;13.90;16.70
12847;DHT22;6492;48.128;8.320;2023-05-10T13:08:29;13.70;15.00
12847;DHT22;6492;48.128;8.320;2023-05-10T13:12:33;13.80;16.00
12847;DHT22;6492;48.128;8.320;2023-05-10T13:16:37;14.20;15.00
12847;DHT22;6492;48.128;8.320;2023-05-10T13:20:39;14.70;12.40
12847;DHT22;6492;48.128;8.320;2023-05-10T13:24:41;15.00;11.20
12847;DHT22;6492;48.128;8.320;2023-05-10T13:28:43;15.00;11.10
12847;DHT22;6492;48.128;8.320;2023-05-10T13:32:47;14.70;9.00
12847;DHT22;6492;48.128;8.320;2023-05-10T13:36:49;13.90;10.70
12847;DHT22;6492;48.128;8.320;2023-05-10T13:40:51;13.40;12.90
12847;DHT22;6492;48.128;8.320;2023-05-10T13:44:53;13.30;15.30
12847;DHT22;6492;48.128;8.320;2023-05-10T13:48:57;13.20;16.40
12847;DHT22;6492;48.128;8.320;2023-05-10T13:52:58;13.10;19.90
12847;DHT22;6492;48.128;8.320;2023-05-10T13:57:00;12.50;20.00
12847;DHT22;6492;48.128;8.320;2023-05-10T14:01:02;12.00;22.90
12847;DHT22;6492;48.128;8.320;2023-05-10T14:05:07;11.50;24.90
12847;DHT22;6492;48.128;8.320;2023-05-10T14:09:09;11.60;27.70
12847;DHT22;6492;48.128;8.320;2023-05-10T14:13:11;12.10;25.00
12847;DHT22;6492;48.128;8.320;2023-05-10T14:17:12;12.80;24.70
12847;DHT22;6492;48.128;8.320;2023-05-10T14:21:26;13.50;21.20
12847;DHT22;6492;48.128;8.320;2023-05-10T14:25:29;14.10;17.20
12847;DHT22;6492;48.128;8.320;2023-05-10T14:29:31;14.20;17.20
12847;DHT22;6492;48.128;8.320;2023-05-10T14:33:40;14.40;15.20
12847;DHT22;6492;48.128;8.320;2023-05-10T14:37:43;14.30;12.60
12847;DHT22;6492;48.128;8.320;2023-05-10T14:41:49;14.40;14.30
12847;DHT22;6492;48.128;8.320;2023-05-10T14:45:51;14.50;12.30
12847;DHT22;6492;48.128;8.320;2023-05-10T14:49:54;14.30;12.20
12847;DHT22;6492;48.128;8.320;2023-05-10T14:53:57;14.10;11.20
12847;DHT22;6492;48.128;8.320;2023-05-10T14:57:59;13.70;12.90
12847;DHT22;6492;48.128;8.320;2023-05-10T15:02:01;13.40;13.90
12847;DHT22;6492;48.128;8.320;2023-05-10T15:06:07;13.20;13.70
12847;DHT22;6492;48.128;8.320;2023-05-10T15:10:11;13.00;14.90
12847;DHT22;6492;48.128;8.320;2023-05-10T15:14:14;13.20;18.00
12847;DHT22;6492;48.128;8.320;2023-05-10T15:18:16;13.50;14.80
12847;DHT22;6492;48.128;8.320;2023-05-10T15:22:18;13.70;14.50
12847;DHT22;6492;48.128;8.320;2023-05-10T15:26:21;13.50;13.50
12847;DHT22;6492;48.128;8.320;2023-05-10T15:30:33;13.50;16.10
12847;DHT22;6492;48.128;8.320;2023-05-10T15:34:41;13.30;15.30
12847;DHT22;6492;48.128;8.320;2023-05-10T15:39:02;13.40;15.70
12847;DHT22;6492;48.128;8.320;2023-05-10T15:43:06;13.80;15.10
12847;DHT22;6492;48.128;8.320;2023-05-10T15:47:07;14.10;10.90
12847;DHT22;6492;48.128;8.320;2023-05-10T15:51:09;14.60;9.70
12847;DHT22;6492;48.128;8.320;2023-05-10T15:55:17;14.50;8.20
12847;DHT22;6492;48.128;8.320;2023-05-10T15:59:38;14.50;10.50
12847;DHT22;6492;48.128;8.320;2023-05-10T16:03:41;14.00;10.20
12847;DHT22;6492;48.128;8.320;2023-05-10T16:07:43;13.80;11.20
12847;DHT22;6492;48.128;8.320;2023-05-10T16:12:09;13.70;11.50
12847;DHT22;6492;48.128;8.320;2023-05-10T16:16:13;13.40;11.90
12847;DHT22;6492;48.128;8.320;2023-05-10T16:20:14;13.10;13.40
12847;DHT22;6492;48.128;8.320;2023-05-10T16:24:16;12.90;13.80
12847;DHT22;6492;48.128;8.320;2023-05-10T16:28:18;12.70;14.70
12847;DHT22;6492;48.128;8.320;2023-05-10T16:32:22;12.60;15.10
12847;DHT22;6492;48.128;8.320;2023-05-10T16:36:24;12.40;16.60
12847;DHT22;6492;48.128;8.320;2023-05-10T16:40:29;12.20;16.40
12847;DHT22;6492;48.128;8.320;2023-05-10T16:44:31;11.70;17.80
12847;DHT22;6492;48.128;8.320;2023-05-10T16:48:35;11.50;20.10
12847;DHT22;6492;48.128;8.320;2023-05-10T16:52:37;11.60;20.80
12847;DHT22;6492;48.128;8.320;2023-05-10T16:56:39;11.80;20.50
12847;DHT22;6492;48.128;8.320;2023-05-10T17:00:42;11.80;20.30
12847;DHT22;6492;48.128;8.320;2023-05-10T17:04:59;11.70;20.30
12847;DHT22;6492;48.128;8.320;2023-05-10T17:09:00;11.50;21.10
12847;DHT22;6492;48.128;8.320;2023-05-10T17:13:03;11.30;22.10
12847;DHT22;6492;48.128;8.320;2023-05-10T17:17:05;11.10;23.40
12847;DHT22;6492;48.128;8.320;2023-05-10T17:21:09;10.80;24.70
12847;DHT22;6492;48.128;8.320;2023-05-10T17:25:13;10.60;22.80
12847;DHT22;6492;48.128;8.320;2023-05-10T17:29:54;10.20;23.20
12847;DHT22;6492;48.128;8.320;2023-05-10T17:34:23;9.80;25.90
12847;DHT22;6492;48.128;8.320;2023-05-10T17:43:13;9.20;34.20
12847;DHT22;6492;48.128;8.320;2023-05-10T17:47:15;8.90;37.20
12847;DHT22;6492;48.128;8.320;2023-05-10T17:51:51;8.80;40.80
12847;DHT22;6492;48.128;8.320;2023-05-10T17:55:58;8.70;43.10
12847;DHT22;6492;48.128;8.320;2023-05-10T18:00:14;8.70;44.50
12847;DHT22;6492;48.128;8.320;2023-05-10T18:04:35;8.80;46.20
12847;DHT22;6492;48.128;8.320;2023-05-10T18:08:43;8.90;47.90
12847;DHT22;6492;48.128;8.320;2023-05-10T18:12:58;9.10;46.40
12847;DHT22;6492;48.128;8.320;2023-05-10T18:17:09;9.00;42.90
12847;DHT22;6492;48.128;8.320;2023-05-10T18:21:12;8.80;43.70
12847;DHT22;6492;48.128;8.320;2023-05-10T18:25:14;8.60;45.10
12847;DHT22;6492;48.128;8.320;2023-05-10T18:29:17;8.50;46.30
12847;DHT22;6492;48.128;8.320;2023-05-10T18:33:43;8.40;48.40
12847;DHT22;6492;48.128;8.320;2023-05-10T18:37:55;8.30;49.40
12847;DHT22;6492;48.128;8.320;2023-05-10T18:41:57;8.20;50.90
12847;DHT22;6492;48.128;8.320;2023-05-10T18:46:17;8.10;52.30
12847;DHT22;6492;48.128;8.320;2023-05-10T18:50:20;8.10;52.00
12847;DHT22;6492;48.128;8.320;2023-05-10T18:54:22;8.10;52.70
12847;DHT22;6492;48.128;8.320;2023-05-10T18:58:36;8.00;53.10
12847;DHT22;6492;48.128;8.320;2023-05-10T19:02:38;7.90;54.00
12847;DHT22;6492;48.128;8.320;2023-05-10T19:06:41;7.80;56.30
12847;DHT22;6492;48.128;8.320;2023-05-10T19:11:05;7.80;56.90
12847;DHT22;6492;48.128;8.320;2023-05-10T19:15:08;7.60;57.10
12847;DHT22;6492;48.128;8.320;2023-05-10T19:19:10;7.60;58.20
12847;DHT22;6492;48.128;8.320;2023-05-10T19:27:54;7.30;59.80
12847;DHT22;6492;48.128;8.320;2023-05-10T19:31:57;7.30;60.50
12847;DHT22;6492;48.128;8.320;2023-05-10T19:36:00;7.20;61.60
12847;DHT22;6492;48.128;8.320;2023-05-10T19:40:02;7.20;63.10
12847;DHT22;6492;48.128;8.320;2023-05-10T19:44:06;7.20;63.70
12847;DHT22;6492;48.128;8.320;2023-05-10T19:48:43;7.20;64.50
12847;DHT22;6492;48.128;8.320;2023-05-10T19:52:46;7.20;64.40
12847;DHT22;6492;48.128;8.320;2023-05-10T19:56:54;7.10;63.70
12847;DHT22;6492;48.128;8.320;2023-05-10T20:01:25;7.00;63.30
12847;DHT22;6492;48.128;8.320;2023-05-10T20:05:27;7.00;63.60
12847;DHT22;6492;48.128;8.320;2023-05-10T20:14:12;6.80;64.40
12847;DHT22;6492;48.128;8.320;2023-05-10T20:18:15;6.80;64.30
12847;DHT22;6492;48.128;8.320;2023-05-10T20:22:17;6.80;64.30
12847;DHT22;6492;48.128;8.320;2023-05-10T20:26:21;6.80;64.10
12847;DHT22;6492;48.128;8.320;2023-05-10T20:30:22;6.80;63.50
12847;DHT22;6492;48.128;8.320;2023-05-10T20:34:26;6.80;64.20
12847;DHT22;6492;48.128;8.320;2023-05-10T20:38:27;6.80;64.70
12847;DHT22;6492;48.128;8.320;2023-05-10T20:42:32;6.70;64.50
12847;DHT22;6492;48.128;8.320;2023-05-10T20:46:34;6.70;64.50
12847;DHT22;6492;48.128;8.320;2023-05-10T20:50:58;6.70;65.50
12847;DHT22;6492;48.128;8.320;2023-05-10T20:55:22;6.70;66.80
12847;DHT22;6492;48.128;8.320;2023-05-10T20:59:24;6.80;66.80
12847;DHT22;6492;48.128;8.320;2023-05-10T21:03:26;6.80;66.80
12847;DHT22;6492;48.128;8.320;2023-05-10T21:07:29;6.80;66.90
12847;DHT22;6492;48.128;8.320;2023-05-10T21:11:32;6.80;66.90
12847;DHT22;6492;48.128;8.320;2023-05-10T21:15:35;6.70;66.50
12847;DHT22;6492;48.128;8.320;2023-05-10T21:19:36;6.70;66.70
12847;DHT22;6492;48.128;8.320;2023-05-10T21:23:39;6.70;68.20
12847;DHT22;6492;48.128;8.320;2023-05-10T21:27:41;6.70;68.00
12847;DHT22;6492;48.128;8.320;2023-05-10T21:31:44;6.70;68.30
12847;DHT22;6492;48.128;8.320;2023-05-10T21:35:46;6.60;68.20
12847;DHT22;6492;48.128;8.320;2023-05-10T21:39:49;6.50;68.30
12847;DHT22;6492;48.128;8.320;2023-05-10T21:43:52;6.50;68.40
12847;DHT22;6492;48.128;8.320;2023-05-10T21:47:54;6.40;69.00
12847;DHT22;6492;48.128;8.320;2023-05-10T21:51:55;6.50;70.20
12847;DHT22;6492;48.128;8.320;2023-05-10T21:55:59;6.50;70.50
12847;DHT22;6492;48.128;8.320;2023-05-10T22:00:01;6.50;70.90
12847;DHT22;6492;48.128;8.320;2023-05-10T22:04:03;6.60;71.50
12847;DHT22;6492;48.128;8.320;2023-05-10T22:08:05;6.60;72.10
12847;DHT22;6492;48.128;8.320;2023-05-10T22:12:08;6.70;72.70
12847;DHT22;6492;48.128;8.320;2023-05-10T22:16:10;6.70;72.70
12847;DHT22;6492;48.128;8.320;2023-05-10T22:20:12;6.70;72.50
12847;DHT22;6492;48.128;8.320;2023-05-10T22:24:13;6.70;72.70
12847;DHT22;6492;48.128;8.320;2023-05-10T22:28:19;6.70;72.50
12847;DHT22;6492;48.128;8.320;2023-05-10T22:32:21;6.60;72.50
12847;DHT22;6492;48.128;8.320;2023-05-10T22:36:22;6.60;72.80
12847;DHT22;6492;48.128;8.320;2023-05-10T22:40:24;6.60;72.80
12847;DHT22;6492;48.128;8.320;2023-05-10T22:44:28;6.50;72.90
12847;DHT22;6492;48.128;8.320;2023-05-10T22:48:31;6.50;73.30
12847;DHT22;6492;48.128;8.320;2023-05-10T22:53:04;6.50;73.80
12847;DHT22;6492;48.128;8.320;2023-05-10T22:57:06;6.50;74.10
12847;DHT22;6492;48.128;8.320;2023-05-10T23:01:09;6.50;74.40
12847;DHT22;6492;48.128;8.320;2023-05-10T23:05:11;6.50;74.70
12847;DHT22;6492;48.128;8.320;2023-05-10T23:09:13;6.50;75.20
12847;DHT22;6492;48.128;8.320;2023-05-10T23:13:15;6.60;75.50
12847;DHT22;6492;48.128;8.320;2023-05-10T23:17:19;6.60;75.30
12847;DHT22;6492;48.128;8.320;2023-05-10T23:21:21;6.60;75.40
12847;DHT22;6492;48.128;8.320;2023-05-10T23:25:24;6.60;75.60
12847;DHT22;6492;48.128;8.320;2023-05-10T23:29:26;6.60;75.60
12847;DHT22;6492;48.128;8.320;2023-05-10T23:33:29;6.60;75.80
12847;DHT22;6492;48.128;8.320;2023-05-10T23:37:31;6.70;76.00
12847;DHT22;6492;48.128;8.320;2023-05-10T23:41:32;6.70;76.20
12847;DHT22;6492;48.128;8.320;2023-05-10T23:45:34;6.70;76.20
12847;DHT22;6492;48.128;8.320;2023-05-10T23:49:37;6.70;76.30
12847;DHT22;6492;48.128;8.320;2023-05-10T23:53:41;6.80;76.10
12847;DHT22;6492;48.128;8.320;2023-05-10T23:57:43;6.70;76.10
